Time;durP1;ratioP1;P1;durP2;ratioP2;P2;SDS_P1;SDS_P2;PMS_P1;PMS_P2;Temp;Humidity;BMP_temperature;BMP_pressure;BME280_temperature;BME280_humidity;BME280_pressure;Samples;Min_cycle;Max_cycle;Signal;HPM_P1;HPM_P2
2023/03/13 00:01:27;;;;;;;18.40;8.50;;;;;;;2.39;87.85;98449.39;108001;1306;23087;-34
2023/03/13 00:03:54;;;;;;;16.50;8.80;;;;;;;2.43;87.73;98448.58;108027;1307;23015;-33
2023/03/13 00:06:20;;;;;;;16.70;8.90;;;;;;;2.39;87.86;98442.83;108026;1306;23135;-34
2023/03/13 00:08:45;;;;;;;21.10;9.00;;;;;;;2.38;88.29;98435.93;108033;1306;22934;-33
2023/03/13 00:11:12;;;;;;;20.00;10.20;;;;;;;2.41;88.20;98434.10;108022;1306;22242;-33
2023/03/13 00:13:38;;;;;;;17.70;8.50;;;;;;;2.42;87.46;98427.14;108029;1306;23093;-33
2023/03/13 00:16:06;;;;;;;15.00;8.00;;;;;;;2.34;87.99;98426.25;108030;1307;22228;-34
2023/03/13 00:18:32;;;;;;;14.60;7.40;;;;;;;2.25;89.33;98423.09;108031;1306;22425;-33
2023/03/13 00:21:02;;;;;;;13.30;7.20;;;;;;;2.24;88.86;98414.99;108042;1307;22241;-33
2023/03/13 00:23:27;;;;;;;13.70;6.60;;;;;;;2.24;88.85;98419.30;108028;1306;22237;-33
2023/03/13 00:25:58;;;;;;;19.40;8.80;;;;;;;2.19;89.08;98423.30;108012;1306;22328;-33
2023/03/13 00:28:23;;;;;;;13.60;7.40;;;;;;;2.16;89.34;98422.00;108017;1306;22316;-33
2023/03/13 00:30:48;;;;;;;20.20;8.10;;;;;;;2.20;88.81;98421.55;108027;1306;22240;-34
2023/03/13 00:33:14;;;;;;;16.30;7.80;;;;;;;2.20;88.70;98417.57;108030;1306;23482;-33
2023/03/13 00:35:39;;;;;;;18.90;8.30;;;;;;;2.19;88.66;98417.24;108036;1306;22260;-33
2023/03/13 00:38:05;;;;;;;17.50;8.10;;;;;;;2.20;89.02;98425.69;108002;1306;23112;-33
2023/03/13 00:40:30;;;;;;;17.00;8.40;;;;;;;2.22;89.17;98427.70;108031;1306;22221;-33
2023/03/13 00:42:55;;;;;;;18.80;8.20;;;;;;;2.25;89.65;98418.08;108011;1306;22901;-34
2023/03/13 00:45:20;;;;;;;15.60;7.70;;;;;;;2.24;89.43;98417.42;108008;1306;23207;-33
2023/03/13 00:47:46;;;;;;;14.70;7.40;;;;;;;2.17;90.17;98414.02;108020;1306;22261;-33
2023/03/13 00:50:11;;;;;;;15.50;7.10;;;;;;;2.22;88.63;98408.13;108006;1307;22274;-33
2023/03/13 00:52:36;;;;;;;14.40;7.20;;;;;;;2.25;87.76;98397.83;108058;1306;22230;-32
2023/03/13 00:55:03;;;;;;;13.30;6.90;;;;;;;2.23;88.18;98396.88;108046;1306;22215;-32
2023/03/13 00:57:28;;;;;;;13.60;6.90;;;;;;;2.17;90.31;98387.06;108004;1306;22209;-36
2023/03/13 00:59:53;;;;;;;13.70;7.40;;;;;;;2.19;89.80;98390.81;108012;1306;22945;-33
2023/03/13 01:02:18;;;;;;;15.20;7.60;;;;;;;2.20;90.58;98389.21;108027;1306;22243;-34
2023/03/13 01:04:44;;;;;;;13.20;6.80;;;;;;;2.12;91.00;98388.95;107999;1306;24866;-33
2023/03/13 01:07:09;;;;;;;13.50;7.10;;;;;;;2.15;91.67;98387.98;108042;1306;23222;-33
2023/03/13 01:09:34;;;;;;;19.40;7.80;;;;;;;2.20;90.90;98384.68;108036;1306;22350;-34
2023/03/13 01:12:00;;;;;;;17.00;8.30;;;;;;;2.23;90.46;98380.08;108026;1306;22212;-33
2023/03/13 01:14:25;;;;;;;18.80;9.40;;;;;;;2.26;90.61;98382.58;108011;1306;22236;-33
2023/03/13 01:16:50;;;;;;;16.70;7.90;;;;;;;2.24;91.12;98385.61;108027;1306;22204;-34
2023/03/13 01:19:16;;;;;;;12.90;7.60;;;;;;;2.19;91.71;98380.24;108016;1306;22879;-33
2023/03/13 01:21:43;;;;;;;16.50;7.90;;;;;;;2.24;91.72;98377.13;108007;1306;22277;-33
2023/03/13 01:24:08;;;;;;;12.00;6.80;;;;;;;2.22;91.50;98378.23;108032;1306;22399;-33
2023/03/13 01:26:34;;;;;;;15.50;7.40;;;;;;;2.25;91.72;98379.50;108021;1306;22220;-33
2023/03/13 01:28:59;;;;;;;12.00;7.40;;;;;;;2.26;91.50;98377.91;108018;1306;23126;-32
2023/03/13 01:31:27;;;;;;;13.70;6.80;;;;;;;2.27;91.96;98381.48;108017;1306;22238;-31
2023/03/13 01:33:57;;;;;;;11.50;6.80;;;;;;;2.28;91.60;98378.33;108013;1306;22233;-32
2023/03/13 01:36:24;;;;;;;12.10;6.90;;;;;;;2.31;91.90;98380.52;108030;1306;22464;-33
2023/03/13 01:38:51;;;;;;;12.50;6.90;;;;;;;2.38;90.02;98368.65;108019;1306;22243;-32
2023/03/13 01:41:18;;;;;;;13.20;6.80;;;;;;;2.37;89.25;98369.57;108020;1306;23137;-32
2023/03/13 01:43:44;;;;;;;15.20;6.80;;;;;;;2.35;91.05;98369.47;108024;1306;22462;-33
2023/03/13 01:46:16;;;;;;;11.80;6.70;;;;;;;2.37;91.42;98361.60;108010;1306;22453;-33
2023/03/13 01:49:09;;;;;;;11.30;6.40;;;;;;;2.29;91.49;98356.35;108041;1306;22251;-34
2023/03/13 01:51:41;;;;;;;13.10;6.80;;;;;;;2.24;91.21;98356.88;108002;1306;22391;-32
2023/03/13 01:54:20;;;;;;;11.60;6.80;;;;;;;2.18;92.64;98355.90;108010;1306;22272;-33
2023/03/13 01:56:56;;;;;;;13.00;6.80;;;;;;;2.22;92.57;98352.45;108001;1306;22227;-33
2023/03/13 01:59:25;;;;;;;13.70;6.70;;;;;;;2.25;92.35;98345.06;108033;1306;22200;-33
2023/03/13 02:01:53;;;;;;;12.80;6.70;;;;;;;2.29;92.80;98346.50;108020;1292;22491;-33
2023/03/13 02:04:20;;;;;;;11.90;6.80;;;;;;;2.34;92.26;98350.65;108046;1306;23061;-37
2023/03/13 02:06:48;;;;;;;;;;;;;;;2.37;92.68;98351.91;108049;1306;22416;-34
2023/03/13 02:09:19;;;;;;;11.20;5.60;;;;;;;2.36;92.72;98356.77;108024;1306;22267;-33
2023/03/13 02:12:08;;;;;;;10.00;6.70;;;;;;;2.35;93.00;98351.83;108030;1306;22397;-33
2023/03/13 02:14:38;;;;;;;14.70;7.80;;;;;;;2.37;92.92;98352.80;108020;1306;22389;-32
2023/03/13 02:17:05;;;;;;;9.40;6.20;;;;;;;2.41;93.34;98352.64;107526;1306;22270;-33
2023/03/13 02:19:34;;;;;;;9.90;6.20;;;;;;;2.43;92.65;98347.71;108023;1306;22234;-33
2023/03/13 02:22:20;;;;;;;11.30;6.60;;;;;;;2.40;93.33;98345.92;108033;1306;23023;-33
2023/03/13 02:25:10;;;;;;;12.20;6.50;;;;;;;2.45;93.12;98356.10;108046;1306;22409;-33
2023/03/13 02:27:35;;;;;;;13.80;7.00;;;;;;;2.51;93.62;98356.27;108014;1306;22315;-33
2023/03/13 02:30:03;;;;;;;12.40;7.00;;;;;;;2.53;93.38;98348.89;108014;1306;22384;-33
2023/03/13 02:32:30;;;;;;;12.20;6.90;;;;;;;2.59;92.36;98356.79;108051;1306;22213;-32
2023/03/13 02:35:01;;;;;;;11.60;6.80;;;;;;;2.59;92.48;98356.98;108043;1306;22380;-33
2023/03/13 02:37:29;;;;;;;11.20;7.60;;;;;;;2.58;94.00;98352.52;108036;1306;22292;-33
2023/03/13 02:39:57;;;;;;;13.90;6.70;;;;;;;2.62;94.46;98356.34;108007;1306;22223;-33
2023/03/13 02:43:42;;;;;;;10.60;6.50;;;;;;;2.75;93.47;98361.38;106966;1302;545412;-32
2023/03/13 02:46:14;;;;;;;11.20;6.10;;;;;;;2.74;93.20;98364.20;107372;1313;22148;-32
2023/03/13 02:48:49;;;;;;;12.00;6.60;;;;;;;2.76;92.47;98364.14;107265;1314;22375;-32
2023/03/13 02:51:35;;;;;;;13.30;6.40;;;;;;;2.71;93.59;98359.98;107282;1314;22421;-33
2023/03/13 02:54:09;;;;;;;11.80;6.10;;;;;;;2.74;93.77;98358.48;107260;1314;22236;-33
2023/03/13 02:56:36;;;;;;;9.70;7.00;;;;;;;2.78;92.74;98366.12;107176;1311;134080;-36
2023/03/13 02:59:02;;;;;;;17.30;7.10;;;;;;;2.77;93.53;98368.41;107470;1311;22257;-32
2023/03/13 03:01:27;;;;;;;10.60;6.70;;;;;;;2.81;93.84;98364.61;107446;1311;22206;-32
2023/03/13 03:03:52;;;;;;;10.50;6.80;;;;;;;2.85;94.46;98368.98;107461;1303;22249;-32
2023/03/13 03:06:18;;;;;;;11.90;6.60;;;;;;;2.88;94.53;98372.83;107461;1311;22239;-33
2023/03/13 03:08:43;;;;;;;14.30;6.30;;;;;;;2.89;95.02;98369.86;107436;1312;22422;-33
2023/03/13 03:11:09;;;;;;;12.70;7.10;;;;;;;2.87;95.63;98371.64;107706;1309;22439;-33
2023/03/13 03:13:35;;;;;;;11.50;6.80;;;;;;;2.94;95.35;98368.97;107718;1309;22243;-33
2023/03/13 03:16:08;;;;;;;13.20;6.20;;;;;;;2.92;95.66;98370.94;107704;1309;22949;-33
2023/03/13 03:18:35;;;;;;;8.60;6.00;;;;;;;2.97;95.41;98367.26;107700;1309;22243;-32
2023/03/13 03:21:01;;;;;;;10.50;6.30;;;;;;;3.01;95.01;98365.39;107698;1309;22268;-34
2023/03/13 03:23:26;;;;;;;11.60;6.30;;;;;;;3.06;94.00;98371.96;107705;1309;22985;-37
2023/03/13 03:25:51;;;;;;;12.80;6.10;;;;;;;2.98;95.33;98364.46;107699;1309;22674;-32
2023/03/13 03:28:17;;;;;;;11.40;6.00;;;;;;;3.00;95.56;98361.13;107697;1309;22491;-34
2023/03/13 03:30:42;;;;;;;8.90;6.30;;;;;;;3.02;96.09;98358.94;107678;1309;22323;-34
2023/03/13 03:33:07;;;;;;;11.50;5.90;;;;;;;2.97;96.98;98356.89;107699;1304;22436;-33
2023/03/13 03:35:37;;;;;;;10.70;6.10;;;;;;;3.06;96.80;98357.91;107704;1309;22416;-32
2023/03/13 03:38:02;;;;;;;11.50;5.60;;;;;;;3.12;97.05;98358.05;107711;1301;22501;-33
2023/03/13 03:40:29;;;;;;;12.50;5.80;;;;;;;3.16;97.21;98354.26;107711;1309;22872;-33
2023/03/13 03:42:54;;;;;;;10.80;6.30;;;;;;;3.21;96.98;98355.42;107689;1308;22262;-32
2023/03/13 03:45:19;;;;;;;7.30;5.60;;;;;;;3.30;95.94;98362.02;107702;1309;22231;-33
2023/03/13 03:47:45;;;;;;;8.10;5.30;;;;;;;3.32;96.31;98361.05;107673;1301;22923;-34
2023/03/13 03:50:10;;;;;;;10.30;5.60;;;;;;;3.33;96.56;98357.73;107717;1309;24938;-33
2023/03/13 03:52:36;;;;;;;11.60;6.10;;;;;;;3.37;96.66;98357.91;107696;1309;22389;-32
2023/03/13 03:55:01;;;;;;;13.10;5.90;;;;;;;3.39;97.11;98356.77;107719;1309;22484;-33
2023/03/13 03:57:27;;;;;;;9.10;5.40;;;;;;;3.42;96.46;98344.16;107692;1309;22318;-32
2023/03/13 03:59:52;;;;;;;11.30;6.20;;;;;;;3.42;96.48;98349.86;107678;1309;22930;-34
2023/03/13 04:02:17;;;;;;;8.60;5.30;;;;;;;3.48;96.21;98345.00;107716;1309;22255;-33
2023/03/13 04:04:43;;;;;;;12.10;5.50;;;;;;;3.48;96.60;98342.36;107724;1309;22240;-34
2023/03/13 04:07:08;;;;;;;10.90;5.60;;;;;;;3.49;97.18;98340.09;107673;1309;22519;-34
2023/03/13 04:09:33;;;;;;;14.80;5.80;;;;;;;3.56;96.72;98339.95;107690;1309;22250;-34
2023/03/13 04:11:58;;;;;;;7.10;4.90;;;;;;;3.64;95.95;98334.06;107736;1308;22240;-34
2023/03/13 04:14:24;;;;;;;7.70;5.70;;;;;;;3.65;95.68;98333.16;107810;1308;22286;-34
2023/03/13 04:16:49;;;;;;;9.30;6.10;;;;;;;3.69;95.32;98335.80;107798;1308;22245;-34
2023/03/13 04:19:14;;;;;;;12.30;5.80;;;;;;;3.70;95.44;98338.16;107809;1308;22404;-34
2023/03/13 04:21:40;;;;;;;7.50;5.60;;;;;;;3.70;96.00;98347.53;107779;1308;22471;-34
2023/03/13 04:24:06;;;;;;;8.10;5.70;;;;;;;3.71;95.68;98348.34;107804;1308;22471;-33
2023/03/13 04:26:31;;;;;;;9.20;5.90;;;;;;;3.65;96.39;98343.91;107602;1308;22429;-33
2023/03/13 04:28:56;;;;;;;9.80;5.50;;;;;;;3.69;96.51;98339.59;107800;1309;22422;-33
2023/03/13 04:31:22;;;;;;;11.90;6.10;;;;;;;3.76;96.12;98339.29;107834;1308;22426;-33
2023/03/13 04:33:47;;;;;;;15.70;5.90;;;;;;;3.80;95.30;98339.98;107797;1308;22322;-33
2023/03/13 04:36:13;;;;;;;12.60;5.70;;;;;;;3.86;95.40;98340.09;107796;1308;22240;-33
2023/03/13 04:38:38;;;;;;;9.90;6.00;;;;;;;3.91;95.44;98337.77;107808;1308;23098;-34
2023/03/13 04:41:03;;;;;;;9.40;6.00;;;;;;;3.95;95.74;98336.76;107801;1308;22490;-33
2023/03/13 04:43:29;;;;;;;10.20;5.30;;;;;;;3.97;96.09;98333.17;107807;1308;22423;-34
2023/03/13 04:45:54;;;;;;;11.50;6.00;;;;;;;3.99;96.00;98335.50;107861;1308;22265;-33
2023/03/13 04:48:19;;;;;;;11.20;6.40;;;;;;;4.02;96.26;98339.38;107829;1308;22235;-34
2023/03/13 04:50:47;;;;;;;9.20;5.50;;;;;;;4.08;95.88;98334.94;107847;1308;22472;-33
2023/03/13 04:53:13;;;;;;;6.80;5.50;;;;;;;4.06;96.91;98336.26;107841;1308;22367;-33
2023/03/13 04:55:38;;;;;;;9.80;5.50;;;;;;;4.05;97.66;98335.77;107861;1308;23135;-33
2023/03/13 04:58:04;;;;;;;9.70;5.90;;;;;;;4.08;97.63;98335.13;107839;1308;22335;-34
2023/03/13 05:00:29;;;;;;;8.00;5.50;;;;;;;4.10;97.16;98334.38;107848;1308;22422;-34
2023/03/13 05:02:54;;;;;;;14.20;6.00;;;;;;;4.04;98.81;98334.09;107848;1308;22309;-33
2023/03/13 05:05:20;;;;;;;8.70;5.00;;;;;;;4.10;98.03;98323.42;107860;1308;22232;-35
2023/03/13 05:07:45;;;;;;;9.00;5.70;;;;;;;4.10;97.86;98315.77;107851;1308;22260;-34
2023/03/13 05:10:10;;;;;;;10.40;5.70;;;;;;;4.12;97.62;98313.41;107874;1308;22379;-34
2023/03/13 05:12:35;;;;;;;11.10;5.80;;;;;;;4.16;97.55;98318.30;107849;1308;22477;-34
2023/03/13 05:15:01;;;;;;;12.30;6.10;;;;;;;4.15;98.11;98317.30;107826;1308;22260;-34
2023/03/13 05:17:26;;;;;;;10.40;6.10;;;;;;;4.18;98.60;98306.75;107840;1308;22295;-35
2023/03/13 05:19:51;;;;;;;11.50;6.10;;;;;;;4.24;98.21;98305.98;107856;1308;23083;-34
2023/03/13 05:22:16;;;;;;;7.30;5.70;;;;;;;4.24;98.23;98305.27;107856;1308;22443;-34
2023/03/13 05:24:42;;;;;;;11.40;5.80;;;;;;;4.29;97.65;98299.52;107850;1308;22212;-33
2023/03/13 05:27:07;;;;;;;9.30;5.40;;;;;;;4.30;98.11;98300.67;107848;1308;22338;-34
2023/03/13 05:29:32;;;;;;;10.80;5.80;;;;;;;4.34;97.45;98305.02;107839;1308;22401;-34
2023/03/13 05:31:58;;;;;;;14.40;6.80;;;;;;;4.35;97.76;98304.09;107715;1308;22212;-34
2023/03/13 05:34:23;;;;;;;13.00;6.10;;;;;;;4.40;97.59;98301.39;107847;1308;22243;-33
2023/03/13 05:36:48;;;;;;;11.00;6.10;;;;;;;4.41;97.79;98295.98;107864;1308;22306;-34
2023/03/13 05:39:14;;;;;;;9.90;5.10;;;;;;;4.44;97.32;98285.75;107856;1308;23140;-34
2023/03/13 05:41:39;;;;;;;10.90;6.50;;;;;;;4.40;97.92;98283.21;107837;1308;23366;-34
2023/03/13 05:44:04;;;;;;;10.30;6.00;;;;;;;4.42;98.38;98274.95;107834;1308;22475;-33
2023/03/13 05:46:30;;;;;;;11.90;6.90;;;;;;;4.46;98.01;98273.39;107865;1308;22244;-34
2023/03/13 05:48:55;;;;;;;9.30;5.80;;;;;;;4.48;97.82;98273.62;107871;1308;23433;-33
2023/03/13 05:51:20;;;;;;;10.00;5.90;;;;;;;4.49;98.01;98276.69;107860;1308;22317;-33
2023/03/13 05:53:46;;;;;;;11.50;6.80;;;;;;;4.54;97.87;98279.92;107842;1308;22864;-33
2023/03/13 05:56:11;;;;;;;13.10;6.40;;;;;;;4.59;97.59;98276.23;107845;1308;22233;-33
2023/03/13 05:58:36;;;;;;;10.40;6.40;;;;;;;4.63;97.24;98278.31;107852;1308;22427;-34
2023/03/13 06:01:10;;;;;;;10.50;5.80;;;;;;;4.59;97.72;98276.39;107843;1308;22473;-34
2023/03/13 06:03:35;;;;;;;11.80;6.70;;;;;;;4.63;97.43;98280.20;107840;1308;22230;-33
2023/03/13 06:06:01;;;;;;;11.10;6.70;;;;;;;4.66;97.84;98274.20;107823;1308;22404;-33
2023/03/13 06:08:26;;;;;;;10.00;6.50;;;;;;;4.69;98.34;98274.36;107862;1308;23074;-33
2023/03/13 06:10:52;;;;;;;12.00;6.20;;;;;;;4.75;98.34;98275.86;107851;1308;22226;-34
2023/03/13 06:13:17;;;;;;;10.50;6.60;;;;;;;4.81;97.97;98276.05;107834;1308;22416;-34
2023/03/13 06:15:43;;;;;;;10.40;6.30;;;;;;;4.86;98.28;98272.88;107834;1308;22426;-34
2023/03/13 06:18:08;;;;;;;14.60;8.10;;;;;;;4.90;97.74;98273.19;107864;1308;22465;-33
2023/03/13 06:20:33;;;;;;;11.90;7.10;;;;;;;4.93;97.62;98272.17;107805;1308;22410;-34
2023/03/13 06:22:58;;;;;;;12.40;7.20;;;;;;;4.98;97.79;98267.27;107826;1308;22316;-34
2023/03/13 06:25:24;;;;;;;13.20;7.50;;;;;;;5.00;97.79;98271.48;107832;1308;22896;-33
2023/03/13 06:27:50;;;;;;;13.60;7.10;;;;;;;5.05;97.69;98270.73;107818;1308;22223;-33
2023/03/13 06:30:16;;;;;;;10.40;6.70;;;;;;;5.11;97.44;98263.48;107852;1308;22222;-33
2023/03/13 06:32:41;;;;;;;12.70;7.40;;;;;;;5.12;98.00;98261.20;107850;1308;22289;-34
2023/03/13 06:35:07;;;;;;;11.70;7.20;;;;;;;5.15;98.13;98259.81;107843;1308;23149;-34
2023/03/13 06:37:32;;;;;;;12.00;7.20;;;;;;;5.22;97.73;98260.17;107834;1308;22407;-33
2023/03/13 06:39:58;;;;;;;15.70;7.60;;;;;;;5.24;97.75;98258.48;107859;1308;22229;-38
2023/03/13 06:42:23;;;;;;;11.80;7.20;;;;;;;5.32;97.03;98258.94;107677;1308;22308;-45
2023/03/13 06:44:48;;;;;;;10.40;7.10;;;;;;;5.38;96.93;98260.61;107817;1308;23088;-34
2023/03/13 06:47:14;;;;;;;15.10;8.10;;;;;;;5.47;95.99;98256.16;107838;1301;22403;-34
2023/03/13 06:49:39;;;;;;;15.00;8.40;;;;;;;5.50;96.11;98256.30;107816;1308;23329;-34
2023/03/13 06:52:04;;;;;;;14.00;7.40;;;;;;;5.54;96.98;98257.17;107834;1308;22473;-34
2023/03/13 06:54:29;;;;;;;14.50;7.90;;;;;;;5.55;97.37;98252.95;107850;1308;23084;-34
2023/03/13 06:56:55;;;;;;;11.20;7.20;;;;;;;5.63;97.34;98256.17;107848;1308;22242;-34
2023/03/13 06:59:20;;;;;;;15.90;7.30;;;;;;;5.74;96.85;98261.34;107859;1308;22187;-34
2023/03/13 07:01:45;;;;;;;11.90;7.60;;;;;;;5.80;96.82;98261.54;107823;1308;22238;-34
2023/03/13 07:04:12;;;;;;;14.00;7.40;;;;;;;5.86;96.75;98260.55;107852;1308;22279;-34
2023/03/13 07:06:37;;;;;;;11.70;6.70;;;;;;;5.92;96.35;98264.61;107816;1308;22258;-34
2023/03/13 07:09:03;;;;;;;9.00;6.20;;;;;;;5.96;96.50;98264.92;107874;1308;22473;-33
2023/03/13 07:11:29;;;;;;;11.80;6.30;;;;;;;5.99;96.07;98265.27;107821;1308;22222;-35
2023/03/13 07:13:55;;;;;;;11.60;6.30;;;;;;;5.97;96.68;98264.35;107856;1308;22944;-34
2023/03/13 07:16:21;;;;;;;13.70;6.80;;;;;;;6.02;96.71;98265.64;107850;1308;22395;-34
2023/03/13 07:18:46;;;;;;;12.50;7.10;;;;;;;6.06;96.71;98268.59;107859;1308;22247;-34
2023/03/13 07:21:12;;;;;;;10.40;7.40;;;;;;;6.11;96.38;98269.19;107853;1308;23316;-34
2023/03/13 07:23:37;;;;;;;13.00;7.50;;;;;;;6.09;97.07;98263.69;107835;1308;22396;-34
2023/03/13 07:26:05;;;;;;;16.20;8.40;;;;;;;6.13;96.89;98260.88;107839;1308;22452;-33
2023/03/13 07:28:31;;;;;;;16.20;8.20;;;;;;;6.21;96.45;98258.88;107870;1308;23009;-34
2023/03/13 07:31:09;;;;;;;13.80;8.00;;;;;;;6.21;96.68;98256.82;107841;1308;22229;-34
2023/03/13 07:33:34;;;;;;;11.80;7.70;;;;;;;6.32;96.08;98249.41;107828;1308;22398;-34
2023/03/13 07:36:00;;;;;;;12.90;7.90;;;;;;;6.34;96.60;98244.43;107846;1308;22401;-35
2023/03/13 07:38:25;;;;;;;16.20;7.90;;;;;;;6.40;96.23;98240.99;107816;1308;22689;-34
2023/03/13 07:40:52;;;;;;;14.80;7.50;;;;;;;6.47;95.96;98243.55;107848;1308;22211;-43
2023/03/13 07:43:18;;;;;;;16.00;7.60;;;;;;;6.50;96.08;98236.77;107835;1308;22228;-41
2023/03/13 07:46:01;;;;;;;16.70;7.80;;;;;;;6.54;95.64;98235.84;107847;1308;22326;-42
2023/03/13 07:48:32;;;;;;;12.50;8.10;;;;;;;6.61;95.70;98225.20;107834;1308;22246;-42
2023/03/13 07:50:58;;;;;;;15.00;7.60;;;;;;;6.73;95.53;98224.36;107849;1308;22231;-43
2023/03/13 07:53:24;;;;;;;17.70;7.70;;;;;;;6.82;95.21;98220.52;107839;1308;23098;-42
2023/03/13 07:55:58;;;;;;;12.60;6.70;;;;;;;6.89;94.80;98219.97;107830;1308;22216;-42
2023/03/13 07:58:25;;;;;;;12.80;6.60;;;;;;;6.97;94.45;98218.83;107821;1308;23166;-43
2023/03/13 08:00:51;;;;;;;16.50;6.60;;;;;;;7.09;94.30;98215.32;107861;1308;22220;-42
2023/03/13 08:03:17;;;;;;;11.70;6.20;;;;;;;7.23;94.13;98209.64;107849;1308;22378;-42
2023/03/13 08:05:43;;;;;;;10.60;6.00;;;;;;;7.31;93.71;98199.36;107839;1308;22239;-42
2023/03/13 08:08:08;;;;;;;13.90;7.10;;;;;;;7.39;93.25;98197.89;107837;1308;22159;-43
2023/03/13 08:10:34;;;;;;;11.20;7.10;;;;;;;7.44;92.75;98197.24;107811;1308;22226;-43
2023/03/13 08:12:59;;;;;;;11.80;6.30;;;;;;;7.53;92.43;98199.48;107863;1308;22249;-42
2023/03/13 08:15:25;;;;;;;14.10;6.50;;;;;;;7.62;92.22;98196.99;107841;1308;23130;-42
2023/03/13 08:17:59;;;;;;;15.70;5.60;;;;;;;7.72;91.93;98190.11;107857;1308;22975;-42
2023/03/13 08:20:24;;;;;;;10.60;5.40;;;;;;;7.78;91.58;98191.31;107855;1308;22229;-42
2023/03/13 08:22:50;;;;;;;12.30;5.80;;;;;;;7.92;91.39;98184.88;107827;1308;23001;-44
2023/03/13 08:25:15;;;;;;;10.90;5.80;;;;;;;7.98;90.69;98185.19;107841;1308;22242;-43
2023/03/13 08:27:41;;;;;;;12.90;6.60;;;;;;;8.04;90.26;98181.52;107816;1296;23275;-42
2023/03/13 08:30:07;;;;;;;14.90;6.30;;;;;;;8.17;89.98;98179.86;107753;1298;22421;-42
2023/03/13 08:32:33;;;;;;;11.70;5.40;;;;;;;8.25;89.45;98174.61;107696;1295;22440;-43
2023/03/13 08:34:58;;;;;;;12.70;6.20;;;;;;;8.34;89.16;98175.59;107738;1302;22419;-43
2023/03/13 08:37:25;;;;;;;12.50;5.20;;;;;;;8.39;88.62;98168.44;107724;1292;22251;-43
2023/03/13 08:39:55;;;;;;;12.80;5.80;;;;;;;8.49;88.17;98163.53;107818;1301;22253;-43
2023/03/13 08:42:20;;;;;;;12.90;5.80;;;;;;;8.52;87.66;98163.85;107765;1295;22446;-42
2023/03/13 08:44:46;;;;;;;14.30;6.60;;;;;;;8.52;87.09;98165.59;107783;1295;22239;-43
2023/03/13 08:47:11;;;;;;;10.80;5.90;;;;;;;8.56;86.93;98169.02;107787;1302;22154;-44
2023/03/13 08:49:37;;;;;;;12.60;6.10;;;;;;;8.70;86.64;98167.58;107744;1298;22362;-47
2023/03/13 08:52:04;;;;;;;14.60;5.80;;;;;;;8.80;86.33;98164.81;107698;1299;23114;-44
2023/03/13 08:54:30;;;;;;;15.10;6.60;;;;;;;8.92;86.23;98162.60;107763;1298;22279;-45
2023/03/13 08:56:55;;;;;;;10.00;5.60;;;;;;;9.06;86.33;98158.73;107753;1298;23333;-43
2023/03/13 08:59:22;;;;;;;12.60;5.80;;;;;;;9.13;85.49;98153.35;107743;1303;22248;-43
2023/03/13 09:01:47;;;;;;;9.80;5.00;;;;;;;9.21;85.38;98148.80;107757;1293;22296;-43
2023/03/13 09:04:13;;;;;;;10.70;5.50;;;;;;;9.21;84.65;98151.08;107675;1301;22356;-43
2023/03/13 09:06:38;;;;;;;11.50;5.40;;;;;;;9.14;83.60;98155.20;107739;1296;22242;-44
2023/03/13 09:09:04;;;;;;;16.10;5.30;;;;;;;9.18;83.80;98148.80;107745;1298;22269;-42
2023/03/13 09:11:30;;;;;;;14.00;4.80;;;;;;;9.23;83.76;98146.59;107773;1308;22432;-44
2023/03/13 09:13:59;;;;;;;11.40;5.30;;;;;;;9.27;83.66;98140.52;107704;1292;22458;-43
2023/03/13 09:16:27;;;;;;;13.70;5.70;;;;;;;9.33;83.68;98133.30;107745;1295;22389;-45
2023/03/13 09:18:53;;;;;;;8.60;4.70;;;;;;;9.40;83.50;98129.66;107744;1297;22218;-43
2023/03/13 09:21:21;;;;;;;14.40;5.60;;;;;;;9.45;83.19;98125.64;107749;1292;22318;-43
2023/03/13 09:23:46;;;;;;;14.70;5.10;;;;;;;9.50;82.26;98122.63;107789;1298;22329;-42
2023/03/13 09:26:12;;;;;;;13.30;5.20;;;;;;;9.63;81.95;98114.44;107734;1302;22284;-41
2023/03/13 09:28:38;;;;;;;19.70;8.00;;;;;;;9.72;81.73;98116.90;107764;1298;22323;-43
2023/03/13 09:31:11;;;;;;;17.40;6.40;;;;;;;9.73;80.39;98116.70;107802;1308;22530;-42
2023/03/13 09:33:37;;;;;;;12.70;6.10;;;;;;;9.86;80.27;98122.39;107792;1299;22238;-43
2023/03/13 09:36:03;;;;;;;13.90;6.20;;;;;;;10.00;79.64;98129.28;107626;1302;22245;-42
2023/03/13 09:38:28;;;;;;;14.40;5.80;;;;;;;10.09;79.55;98133.23;107691;1293;22365;-42
2023/03/13 09:40:54;;;;;;;11.60;4.60;;;;;;;10.19;79.07;98133.91;107746;1307;23147;-41
2023/03/13 09:43:41;;;;;;;12.50;5.00;;;;;;;10.21;78.16;98137.10;107702;1295;22276;-42
2023/03/13 09:46:14;;;;;;;10.80;4.20;;;;;;;10.19;77.24;98137.05;107721;1301;22817;-41
2023/03/13 09:48:44;;;;;;;11.40;4.30;;;;;;;10.27;77.14;98129.12;107757;1292;22419;-42
2023/03/13 09:51:22;;;;;;;14.80;4.80;;;;;;;10.39;77.33;98125.48;107767;1301;22431;-43
2023/03/13 09:54:05;;;;;;;11.10;4.70;;;;;;;10.43;76.51;98116.62;107641;1302;22987;-41
2023/03/13 09:56:39;;;;;;;14.50;5.00;;;;;;;10.48;76.27;98118.17;107765;1303;22499;-41
2023/03/13 09:59:28;;;;;;;23.80;4.80;;;;;;;10.54;75.65;98106.88;107671;1292;22254;-41
2023/03/13 10:01:55;;;;;;;15.90;4.80;;;;;;;10.63;75.50;98101.15;107850;1297;22215;-42
2023/03/13 10:04:33;;;;;;;13.20;5.20;;;;;;;10.74;75.48;98096.10;107825;1293;22347;-44
2023/03/13 10:06:58;;;;;;;12.10;4.40;;;;;;;10.78;74.76;98088.09;107462;1308;22193;-42
2023/03/13 10:09:33;;;;;;;16.10;6.10;;;;;;;10.87;74.20;98087.04;107765;1308;22324;-43
2023/03/13 10:12:04;;;;;;;11.40;4.80;;;;;;;10.91;73.68;98078.87;107689;1304;22912;-42
2023/03/13 10:14:38;;;;;;;17.00;4.80;;;;;;;11.03;73.92;98070.19;107512;1299;22240;-43
2023/03/13 10:17:14;;;;;;;14.10;4.30;;;;;;;11.03;73.01;98067.21;107822;1302;22266;-41
2023/03/13 10:19:42;;;;;;;25.50;6.20;;;;;;;11.06;72.86;98064.37;107831;1308;22279;-40
2023/03/13 10:22:18;;;;;;;15.70;5.30;;;;;;;11.00;71.95;98069.04;107873;1308;22402;-41
2023/03/13 10:24:52;;;;;;;15.10;5.00;;;;;;;11.00;72.12;98062.71;107679;1308;22377;-42
2023/03/13 10:27:18;;;;;;;16.60;4.70;;;;;;;11.02;71.85;98051.54;107865;1308;22428;-42
2023/03/13 10:29:43;;;;;;;18.40;4.50;;;;;;;11.02;71.68;98043.99;107801;1302;22418;-42
2023/03/13 10:32:12;;;;;;;14.60;4.90;;;;;;;11.00;71.47;98041.88;107860;1308;23530;-42
2023/03/13 10:35:02;;;;;;;13.40;4.50;;;;;;;10.89;71.50;98037.11;107819;1308;22274;-42
2023/03/13 10:37:39;;;;;;;11.70;4.60;;;;;;;10.85;71.08;98037.70;107852;1308;22218;-43
2023/03/13 10:40:25;;;;;;;11.30;4.20;;;;;;;10.86;71.53;98026.45;107807;1308;22236;-41
2023/03/13 10:42:52;;;;;;;16.80;4.40;;;;;;;10.93;71.71;98025.40;107762;1308;22242;-43
2023/03/13 10:45:20;;;;;;;19.30;4.60;;;;;;;10.94;71.51;98020.20;107809;1308;22438;-42
2023/03/13 10:47:58;;;;;;;16.00;4.80;;;;;;;11.07;71.13;98008.36;107820;1308;23217;-42
2023/03/13 10:50:26;;;;;;;9.20;3.80;;;;;;;11.17;70.49;98003.70;107780;1301;23119;-41
2023/03/13 10:52:52;;;;;;;14.10;4.90;;;;;;;11.31;70.61;98001.59;107793;1302;22440;-42
2023/03/13 10:55:21;;;;;;;17.30;4.80;;;;;;;11.39;70.45;97994.11;107824;1302;23224;-42
2023/03/13 10:57:57;;;;;;;14.40;4.30;;;;;;;11.44;70.11;97990.32;107792;1302;22207;-40
2023/03/13 11:00:33;;;;;;;24.30;5.20;;;;;;;11.43;69.53;97985.34;107692;1295;22398;-42
2023/03/13 11:02:58;;;;;;;12.30;4.00;;;;;;;11.37;68.88;97978.61;107797;1308;23160;-40
2023/03/13 11:05:32;;;;;;;21.00;4.70;;;;;;;11.31;68.86;97974.00;107790;1308;23516;-41
2023/03/13 11:07:57;;;;;;;14.30;3.60;;;;;;;11.30;68.78;97967.09;107830;1308;22269;-42
2023/03/13 11:10:28;;;;;;;16.10;4.00;;;;;;;11.33;68.93;97958.23;107773;1302;22625;-42
2023/03/13 11:12:56;;;;;;;16.80;4.60;;;;;;;11.30;68.64;97955.64;107742;1305;22462;-43
2023/03/13 11:15:30;;;;;;;11.50;3.70;;;;;;;11.33;69.20;97948.92;107835;1301;22246;-39
2023/03/13 11:18:22;;;;;;;12.40;4.10;;;;;;;11.30;69.48;97942.20;107795;1308;22287;-42
2023/03/13 11:20:48;;;;;;;9.90;3.90;;;;;;;11.25;70.14;97939.75;107801;1308;22411;-42
2023/03/13 11:23:27;;;;;;;14.80;4.10;;;;;;;11.21;70.07;97938.48;107852;1308;23217;-40
2023/03/13 11:26:14;;;;;;;12.50;4.50;;;;;;;11.15;70.18;97936.48;107766;1308;23190;-41
2023/03/13 11:28:51;;;;;;;15.40;3.90;;;;;;;11.08;69.96;97938.96;107817;1293;22235;-42